createdAt,value
2022-12-14T00:00:04.424Z,22.37
2022-12-14T00:00:35.836Z,22.37
2022-12-14T00:01:07.360Z,22.38
2022-12-14T00:01:38.814Z,22.37
2022-12-14T00:02:10.310Z,22.39
2022-12-14T00:02:41.823Z,22.40
2022-12-14T00:03:13.406Z,22.41
2022-12-14T00:03:44.983Z,22.39
2022-12-14T00:04:16.441Z,22.41
2022-12-14T00:04:47.827Z,22.40
2022-12-14T00:05:19.300Z,22.40
2022-12-14T00:05:50.719Z,22.39
2022-12-14T00:06:22.141Z,22.38
2022-12-14T00:06:53.537Z,22.38
2022-12-14T00:07:24.988Z,22.39
2022-12-14T00:07:56.435Z,22.40
2022-12-14T00:08:28.245Z,22.40
2022-12-14T00:09:00.120Z,22.40
2022-12-14T00:09:31.541Z,22.40
2022-12-14T00:10:02.949Z,22.40
2022-12-14T00:10:34.421Z,22.39
2022-12-14T00:11:06.046Z,22.40
2022-12-14T00:11:37.448Z,22.41
2022-12-14T00:12:08.864Z,22.40
2022-12-14T00:12:40.296Z,22.40
2022-12-14T00:13:11.726Z,22.41
2022-12-14T00:13:43.165Z,22.41
2022-12-14T00:14:14.649Z,22.41
2022-12-14T00:14:46.057Z,22.42
2022-12-14T00:15:17.548Z,22.41
2022-12-14T00:15:49.021Z,22.41
2022-12-14T00:16:20.439Z,22.41
2022-12-14T00:16:51.941Z,22.41
2022-12-14T00:17:23.360Z,22.38
2022-12-14T00:17:54.758Z,22.40
2022-12-14T00:18:26.491Z,22.40
2022-12-14T00:18:58.143Z,22.42
2022-12-14T00:19:29.540Z,22.41
2022-12-14T00:20:00.993Z,22.40
2022-12-14T00:20:32.435Z,22.41
2022-12-14T00:21:03.912Z,22.41
2022-12-14T00:21:35.340Z,22.41
2022-12-14T00:22:06.757Z,22.41
2022-12-14T00:22:38.184Z,22.41
2022-12-14T00:23:09.589Z,22.41
2022-12-14T00:23:41.107Z,22.40
2022-12-14T00:24:12.518Z,22.40
2022-12-14T00:24:43.986Z,22.42
2022-12-14T00:25:15.388Z,22.43
2022-12-14T00:25:48.986Z,22.43
2022-12-14T00:26:20.598Z,22.42
2022-12-14T00:26:51.996Z,22.42
2022-12-14T00:27:23.387Z,22.41
2022-12-14T00:27:54.779Z,22.42
2022-12-14T00:28:26.561Z,22.42
2022-12-14T00:28:58.140Z,22.42
2022-12-14T00:29:29.565Z,22.41
2022-12-14T00:30:00.946Z,22.41
2022-12-14T00:30:32.354Z,22.44
2022-12-14T00:31:03.790Z,22.44
2022-12-14T00:31:35.362Z,22.44
2022-12-14T00:32:06.785Z,22.42
2022-12-14T00:32:38.199Z,22.41
2022-12-14T00:33:09.651Z,22.43
2022-12-14T00:33:41.131Z,22.42
2022-12-14T00:34:12.600Z,22.41
2022-12-14T00:34:43.985Z,22.41
2022-12-14T00:35:15.426Z,22.41
2022-12-14T00:35:46.827Z,22.40
2022-12-14T00:36:18.249Z,22.38
2022-12-14T00:36:49.760Z,22.39
2022-12-14T00:37:21.174Z,22.39
2022-12-14T00:37:52.620Z,22.40
2022-12-14T00:38:24.204Z,22.41
2022-12-14T00:38:55.826Z,22.41
2022-12-14T00:39:27.261Z,22.39
2022-12-14T00:39:58.649Z,22.40
2022-12-14T00:40:30.115Z,22.41
2022-12-14T00:41:01.564Z,22.42
2022-12-14T00:41:32.997Z,22.39
2022-12-14T00:42:04.504Z,22.41
2022-12-14T00:42:35.956Z,22.41
2022-12-14T00:43:07.393Z,22.41
2022-12-14T00:43:38.793Z,22.41
2022-12-14T00:44:10.242Z,22.41
2022-12-14T00:44:41.656Z,22.41
2022-12-14T00:45:13.062Z,22.41
2022-12-14T00:45:44.492Z,22.42
2022-12-14T00:46:15.967Z,22.39
2022-12-14T00:46:47.428Z,22.40
2022-12-14T00:47:18.925Z,22.41
2022-12-14T00:47:50.359Z,22.39
2022-12-14T00:48:21.772Z,22.42
2022-12-14T00:48:53.189Z,22.41
2022-12-14T00:49:24.601Z,22.38
2022-12-14T00:49:56.043Z,22.39
2022-12-14T00:50:27.462Z,22.41
2022-12-14T00:50:58.858Z,22.41
2022-12-14T00:51:30.312Z,22.40
2022-12-14T00:52:01.882Z,22.42
2022-12-14T00:52:33.334Z,22.41
2022-12-14T00:53:04.813Z,22.41
2022-12-14T00:53:36.238Z,22.40
2022-12-14T00:54:07.641Z,22.41
2022-12-14T00:54:39.068Z,22.41
2022-12-14T00:55:10.450Z,22.41
2022-12-14T00:55:41.883Z,22.42
2022-12-14T00:56:13.307Z,22.39
2022-12-14T00:56:44.753Z,22.41
2022-12-14T00:57:16.224Z,22.40
2022-12-14T00:57:47.728Z,22.40
2022-12-14T00:58:19.180Z,22.41
2022-12-14T00:58:50.627Z,22.41
2022-12-14T00:59:27.107Z,22.38
2022-12-14T00:59:58.819Z,22.39
2022-12-14T01:00:30.208Z,22.39
2022-12-14T01:01:01.783Z,22.39
2022-12-14T01:01:33.375Z,22.38
2022-12-14T01:02:05.032Z,22.39
2022-12-14T01:02:36.556Z,22.41
2022-12-14T01:03:07.975Z,22.39
2022-12-14T01:03:39.446Z,22.41
2022-12-14T01:04:10.977Z,22.42
2022-12-14T01:04:42.434Z,22.41
2022-12-14T01:05:14.042Z,22.41
2022-12-14T01:05:49.078Z,22.42
2022-12-14T01:06:20.953Z,22.43
2022-12-14T01:06:52.402Z,22.41
2022-12-14T01:07:23.878Z,22.40
2022-12-14T01:07:55.448Z,22.41
2022-12-14T01:08:26.929Z,22.43
2022-12-14T01:08:58.334Z,22.42
2022-12-14T01:09:29.814Z,22.40
2022-12-14T01:10:01.272Z,22.40
2022-12-14T01:10:32.717Z,22.41
2022-12-14T01:11:04.113Z,22.40
2022-12-14T01:11:35.605Z,22.40
2022-12-14T01:12:07.092Z,22.41
2022-12-14T01:12:38.505Z,22.41
2022-12-14T01:13:09.924Z,22.39
2022-12-14T01:13:41.581Z,22.39
2022-12-14T01:14:14.273Z,22.41
2022-12-14T01:14:45.748Z,22.40
2022-12-14T01:15:17.228Z,22.40
2022-12-14T01:15:48.703Z,22.40
2022-12-14T01:16:20.289Z,22.39
2022-12-14T01:16:51.680Z,22.39
2022-12-14T01:17:23.106Z,22.37
2022-12-14T01:17:54.552Z,22.40
2022-12-14T01:18:25.956Z,22.40
2022-12-14T01:18:57.368Z,22.41
2022-12-14T01:19:28.778Z,22.40
2022-12-14T01:20:00.282Z,22.41
2022-12-14T01:20:31.678Z,22.40
2022-12-14T01:21:03.237Z,22.42
2022-12-14T01:21:34.654Z,22.41
2022-12-14T01:22:06.092Z,22.41
2022-12-14T01:22:37.536Z,22.40
2022-12-14T01:23:09.000Z,22.41
2022-12-14T01:23:40.414Z,22.41
2022-12-14T01:24:11.811Z,22.42
2022-12-14T01:24:43.224Z,22.39
2022-12-14T01:25:14.693Z,22.39
2022-12-14T01:25:46.141Z,22.38
2022-12-14T01:26:20.395Z,22.38
2022-12-14T01:26:52.149Z,22.40
2022-12-14T01:27:23.549Z,22.39
2022-12-14T01:27:55.113Z,22.39
2022-12-14T01:28:26.513Z,22.39
2022-12-14T01:28:58.016Z,22.38
2022-12-14T01:29:29.451Z,22.39
2022-12-14T01:30:00.907Z,22.40
2022-12-14T01:30:32.340Z,22.41
2022-12-14T01:31:03.838Z,22.38
2022-12-14T01:31:35.396Z,22.37
2022-12-14T01:32:06.841Z,22.36
2022-12-14T01:32:38.306Z,22.36
2022-12-14T01:33:09.745Z,22.38
2022-12-14T01:33:41.155Z,22.37
2022-12-14T01:34:12.594Z,22.39
2022-12-14T01:34:44.031Z,22.38
2022-12-14T01:35:15.453Z,22.38
2022-12-14T01:35:46.858Z,22.38
2022-12-14T01:36:18.355Z,22.38
2022-12-14T01:36:49.783Z,22.38
2022-12-14T01:37:21.403Z,22.39
2022-12-14T01:37:52.828Z,22.38
2022-12-14T01:38:24.343Z,22.38
2022-12-14T01:38:55.816Z,22.37
2022-12-14T01:39:27.249Z,22.37
2022-12-14T01:39:58.766Z,22.36
2022-12-14T01:40:30.209Z,22.38
2022-12-14T01:41:01.681Z,22.37
2022-12-14T01:41:33.126Z,22.37
2022-12-14T01:42:04.589Z,22.36
2022-12-14T01:42:36.061Z,22.36
2022-12-14T01:43:07.495Z,22.37
2022-12-14T01:43:38.981Z,22.39
2022-12-14T01:44:10.407Z,22.40
2022-12-14T01:44:41.833Z,22.38
2022-12-14T01:45:13.279Z,22.39
2022-12-14T01:45:44.688Z,22.36
2022-12-14T01:46:16.148Z,22.36
2022-12-14T01:46:47.636Z,22.38
2022-12-14T01:47:19.157Z,22.38
2022-12-14T01:47:50.668Z,22.39
2022-12-14T01:48:22.150Z,22.39
2022-12-14T01:48:53.611Z,22.36
2022-12-14T01:49:24.998Z,22.35
2022-12-14T01:49:56.416Z,22.35
2022-12-14T01:50:27.844Z,22.37
2022-12-14T01:50:59.308Z,22.38
2022-12-14T01:51:30.723Z,22.38
2022-12-14T01:52:02.165Z,22.39
2022-12-14T01:52:33.602Z,22.37
2022-12-14T01:53:05.111Z,22.39
2022-12-14T01:53:36.622Z,22.36
2022-12-14T01:54:08.109Z,22.38
2022-12-14T01:54:39.555Z,22.39
2022-12-14T01:55:11.017Z,22.37
2022-12-14T01:55:42.440Z,22.37
2022-12-14T01:56:20.305Z,22.37
2022-12-14T01:56:51.736Z,22.38
2022-12-14T01:57:23.156Z,22.40
2022-12-14T01:57:54.563Z,22.40
2022-12-14T01:58:25.990Z,22.38
2022-12-14T01:58:57.398Z,22.38
2022-12-14T01:59:28.887Z,22.41
2022-12-14T02:00:06.661Z,22.40
2022-12-14T02:00:38.529Z,22.39
2022-12-14T02:01:09.943Z,22.38
2022-12-14T02:01:41.541Z,22.37
2022-12-14T02:02:13.170Z,22.37
2022-12-14T02:02:44.778Z,22.38
2022-12-14T02:03:16.318Z,22.39
2022-12-14T02:03:47.910Z,22.39
2022-12-14T02:04:19.437Z,22.37
2022-12-14T02:04:50.926Z,22.38
2022-12-14T02:05:22.337Z,22.39
2022-12-14T02:05:53.776Z,22.37
2022-12-14T02:06:25.258Z,22.38
2022-12-14T02:07:01.101Z,22.39
2022-12-14T02:07:32.881Z,22.38
2022-12-14T02:08:04.299Z,22.38
2022-12-14T02:08:35.765Z,22.38
2022-12-14T02:09:07.218Z,22.35
2022-12-14T02:09:38.568Z,22.39
2022-12-14T02:10:10.043Z,22.37
2022-12-14T02:10:41.472Z,22.37
2022-12-14T02:11:12.905Z,22.38
2022-12-14T02:11:44.374Z,22.37
2022-12-14T02:12:15.757Z,22.39
2022-12-14T02:12:47.194Z,22.40
2022-12-14T02:13:18.633Z,22.40
2022-12-14T02:13:50.035Z,22.39
2022-12-14T02:14:21.508Z,22.38
2022-12-14T02:14:52.946Z,22.38
2022-12-14T02:15:24.430Z,22.38
2022-12-14T02:15:55.940Z,22.37
2022-12-14T02:16:27.465Z,22.37
2022-12-14T02:16:58.990Z,22.37
2022-12-14T02:17:30.335Z,22.36
2022-12-14T02:18:01.722Z,22.33
2022-12-14T02:18:33.164Z,22.35
2022-12-14T02:19:04.595Z,22.36
2022-12-14T02:19:36.144Z,22.37
2022-12-14T02:20:07.573Z,22.36
2022-12-14T02:20:39.153Z,22.35
2022-12-14T02:21:10.620Z,22.36
2022-12-14T02:21:42.079Z,22.36
2022-12-14T02:22:13.504Z,22.39
2022-12-14T02:22:44.963Z,22.37
2022-12-14T02:23:16.370Z,22.37
2022-12-14T02:23:47.791Z,22.36
2022-12-14T02:24:19.289Z,22.34
2022-12-14T02:24:50.713Z,22.35
2022-12-14T02:25:22.176Z,22.36
2022-12-14T02:25:53.677Z,22.36
2022-12-14T02:26:25.123Z,22.37
2022-12-14T02:26:56.565Z,22.39
2022-12-14T02:27:27.981Z,22.35
2022-12-14T02:27:59.770Z,22.35
2022-12-14T02:28:31.186Z,22.37
2022-12-14T02:29:02.566Z,22.37
2022-12-14T02:29:33.949Z,22.38
2022-12-14T02:30:05.371Z,22.36
2022-12-14T02:30:36.810Z,22.38
2022-12-14T02:31:08.344Z,22.37
2022-12-14T02:31:39.867Z,22.37
2022-12-14T02:32:11.307Z,22.37
2022-12-14T02:32:42.781Z,22.36
2022-12-14T02:33:14.239Z,22.36
2022-12-14T02:33:45.644Z,22.36
2022-12-14T02:34:17.077Z,22.38
2022-12-14T02:34:48.528Z,22.38
2022-12-14T02:35:20.014Z,22.39
2022-12-14T02:35:51.416Z,22.37
2022-12-14T02:36:22.862Z,22.36
2022-12-14T02:36:54.323Z,22.37
2022-12-14T02:37:25.758Z,22.35
2022-12-14T02:37:57.199Z,22.36
2022-12-14T02:38:28.688Z,22.37
2022-12-14T02:39:00.128Z,22.38
2022-12-14T02:39:31.519Z,22.37
2022-12-14T02:40:02.914Z,22.34
2022-12-14T02:40:34.272Z,22.36
2022-12-14T02:41:05.675Z,22.35
2022-12-14T02:41:40.169Z,22.37
2022-12-14T02:42:11.622Z,22.39
2022-12-14T02:42:43.019Z,22.38
2022-12-14T02:43:14.503Z,22.39
2022-12-14T02:43:47.389Z,22.38
2022-12-14T02:44:18.943Z,22.37
2022-12-14T02:44:50.434Z,22.38
2022-12-14T02:45:21.847Z,22.37
2022-12-14T02:45:53.283Z,22.39
2022-12-14T02:46:24.795Z,22.37
2022-12-14T02:46:56.284Z,22.38
2022-12-14T02:47:27.746Z,22.39
2022-12-14T02:47:59.156Z,22.40
2022-12-14T02:48:30.656Z,22.39
2022-12-14T02:49:02.051Z,22.38
2022-12-14T02:49:33.471Z,22.37
2022-12-14T02:50:04.923Z,22.37
2022-12-14T02:50:36.349Z,22.36
2022-12-14T02:51:07.823Z,22.36
2022-12-14T02:51:39.258Z,22.39
2022-12-14T02:52:10.713Z,22.39
2022-12-14T02:52:42.110Z,22.39
2022-12-14T02:53:13.555Z,22.38
2022-12-14T02:53:45.006Z,22.38
2022-12-14T02:54:16.408Z,22.37
2022-12-14T02:54:47.861Z,22.37
2022-12-14T02:55:19.275Z,22.38
2022-12-14T02:55:50.805Z,22.37
2022-12-14T02:56:22.214Z,22.38
2022-12-14T02:56:53.675Z,22.37
2022-12-14T02:57:25.083Z,22.37
2022-12-14T02:57:56.475Z,22.38
2022-12-14T02:58:27.982Z,22.38
2022-12-14T02:58:59.430Z,22.36
2022-12-14T02:59:30.875Z,22.36
2022-12-14T03:00:02.349Z,22.35
2022-12-14T03:00:34.019Z,22.36
2022-12-14T03:01:05.652Z,22.36
2022-12-14T03:01:37.278Z,22.38
2022-12-14T03:02:08.923Z,22.40
2022-12-14T03:02:40.578Z,22.38
2022-12-14T03:03:12.154Z,22.38
2022-12-14T03:03:43.647Z,22.37
2022-12-14T03:04:15.336Z,22.39
2022-12-14T03:04:46.817Z,22.39
2022-12-14T03:05:18.358Z,22.39
2022-12-14T03:05:49.872Z,22.39
2022-12-14T03:06:21.297Z,22.37
2022-12-14T03:06:52.680Z,22.38
2022-12-14T03:07:24.107Z,22.38
2022-12-14T03:07:55.524Z,22.38
2022-12-14T03:08:26.990Z,22.39
2022-12-14T03:08:58.474Z,22.39
2022-12-14T03:09:29.899Z,22.39
2022-12-14T03:10:01.369Z,22.39
2022-12-14T03:10:32.844Z,22.37
2022-12-14T03:11:04.262Z,22.37
2022-12-14T03:11:35.666Z,22.37
2022-12-14T03:12:07.130Z,22.39
2022-12-14T03:12:38.520Z,22.39
2022-12-14T03:13:09.967Z,22.39
2022-12-14T03:13:41.402Z,22.37
2022-12-14T03:14:12.851Z,22.37
2022-12-14T03:14:44.293Z,22.38
2022-12-14T03:15:15.707Z,22.37
2022-12-14T03:15:47.362Z,22.37
2022-12-14T03:16:18.804Z,22.37
2022-12-14T03:16:50.210Z,22.37
2022-12-14T03:17:21.664Z,22.39
2022-12-14T03:17:53.062Z,22.40
2022-12-14T03:18:24.797Z,22.39
2022-12-14T03:18:56.215Z,22.39
2022-12-14T03:19:27.729Z,22.36
2022-12-14T03:19:59.173Z,22.40
2022-12-14T03:20:30.563Z,22.38
2022-12-14T03:21:01.995Z,22.36
2022-12-14T03:21:33.410Z,22.38
2022-12-14T03:22:04.841Z,22.37
2022-12-14T03:22:36.251Z,22.36
2022-12-14T03:23:07.715Z,22.35
2022-12-14T03:23:39.069Z,22.35
2022-12-14T03:24:10.500Z,22.35
2022-12-14T03:24:42.002Z,22.36
2022-12-14T03:25:13.428Z,22.37
2022-12-14T03:25:44.828Z,22.36
2022-12-14T03:26:16.408Z,22.37
2022-12-14T03:26:47.911Z,22.36
2022-12-14T03:27:19.315Z,22.35
2022-12-14T03:27:50.783Z,22.38
2022-12-14T03:28:22.172Z,22.38
2022-12-14T03:28:53.607Z,22.36
2022-12-14T03:29:25.047Z,22.36
2022-12-14T03:29:56.551Z,22.37
2022-12-14T03:30:58.220Z,22.37
2022-12-14T03:31:19.437Z,22.38
2022-12-14T03:31:50.901Z,22.39
2022-12-14T03:32:22.398Z,22.38
2022-12-14T03:32:53.849Z,22.39
2022-12-14T03:33:25.683Z,22.39
2022-12-14T03:33:57.300Z,22.37
2022-12-14T03:34:28.703Z,22.37
2022-12-14T03:35:00.195Z,22.40
2022-12-14T03:35:31.642Z,22.40
2022-12-14T03:36:03.074Z,22.39
2022-12-14T03:36:34.511Z,22.39
2022-12-14T03:37:05.944Z,22.40
2022-12-14T03:37:37.427Z,22.39
2022-12-14T03:38:08.891Z,22.41
2022-12-14T03:38:40.401Z,22.39
2022-12-14T03:39:11.807Z,22.37
2022-12-14T03:39:43.185Z,22.38
2022-12-14T03:40:14.727Z,22.37
2022-12-14T03:40:46.155Z,22.37
2022-12-14T03:41:17.586Z,22.39
2022-12-14T03:41:49.272Z,22.39
2022-12-14T03:42:20.823Z,22.39
2022-12-14T03:42:52.250Z,22.38
2022-12-14T03:43:25.712Z,22.37
2022-12-14T03:43:57.351Z,22.39
2022-12-14T03:44:28.737Z,22.39
2022-12-14T03:45:00.150Z,22.39
2022-12-14T03:45:31.709Z,22.38
2022-12-14T03:46:03.193Z,22.37
2022-12-14T03:46:34.609Z,22.39
2022-12-14T03:47:06.090Z,22.40
2022-12-14T03:47:37.504Z,22.37
2022-12-14T03:48:08.949Z,22.38
2022-12-14T03:48:40.349Z,22.37
2022-12-14T03:49:11.728Z,22.36
2022-12-14T03:49:43.179Z,22.37
2022-12-14T03:50:14.591Z,22.38
2022-12-14T03:50:46.101Z,22.39
2022-12-14T03:51:17.517Z,22.39
2022-12-14T03:51:48.954Z,22.39
2022-12-14T03:52:20.428Z,22.39
2022-12-14T03:52:51.837Z,22.40
2022-12-14T03:53:23.294Z,22.39
2022-12-14T03:53:54.778Z,22.40
2022-12-14T03:54:26.137Z,22.39
2022-12-14T03:54:57.596Z,22.39
2022-12-14T03:55:29.021Z,22.39
2022-12-14T03:56:00.564Z,22.39
2022-12-14T03:56:31.941Z,22.38
2022-12-14T03:57:03.382Z,22.37
2022-12-14T03:57:34.807Z,22.39
2022-12-14T03:58:06.197Z,22.40
2022-12-14T03:58:37.667Z,22.39
2022-12-14T03:59:09.072Z,22.39
2022-12-14T03:59:40.471Z,22.38
2022-12-14T04:00:11.904Z,22.38
2022-12-14T04:00:43.392Z,22.37
2022-12-14T04:01:15.148Z,22.38
2022-12-14T04:01:46.773Z,22.39
2022-12-14T04:02:20.829Z,22.39
2022-12-14T04:02:52.380Z,22.41
2022-12-14T04:03:24.108Z,22.40
2022-12-14T04:03:55.689Z,22.40
2022-12-14T04:04:27.198Z,22.39
2022-12-14T04:04:58.687Z,22.39
2022-12-14T04:05:30.142Z,22.38
2022-12-14T04:06:01.689Z,22.38
2022-12-14T04:06:33.168Z,22.38
2022-12-14T04:07:04.591Z,22.37
2022-12-14T04:07:35.983Z,22.38
2022-12-14T04:08:07.418Z,22.38
2022-12-14T04:08:38.846Z,22.38
2022-12-14T04:09:10.336Z,22.39
2022-12-14T04:09:41.782Z,22.41
2022-12-14T04:10:13.200Z,22.38
2022-12-14T04:10:44.615Z,22.38
2022-12-14T04:11:16.021Z,22.37
2022-12-14T04:11:47.516Z,22.35
2022-12-14T04:12:18.950Z,22.38
2022-12-14T04:12:51.646Z,22.38
2022-12-14T04:13:23.244Z,22.38
2022-12-14T04:13:54.676Z,22.37
2022-12-14T04:14:26.132Z,22.37
2022-12-14T04:14:57.614Z,22.36
2022-12-14T04:15:28.994Z,22.35
2022-12-14T04:16:00.398Z,22.37
2022-12-14T04:16:31.945Z,22.36
2022-12-14T04:17:03.464Z,22.37
2022-12-14T04:17:34.924Z,22.35
2022-12-14T04:18:06.397Z,22.35
2022-12-14T04:18:37.856Z,22.36
2022-12-14T04:19:09.296Z,22.34
2022-12-14T04:19:40.699Z,22.35
2022-12-14T04:20:12.128Z,22.36
2022-12-14T04:20:43.556Z,22.38
2022-12-14T04:21:15.294Z,22.38
2022-12-14T04:21:46.713Z,22.37
2022-12-14T04:22:18.251Z,22.36
2022-12-14T04:22:49.681Z,22.37
2022-12-14T04:23:21.119Z,22.38
2022-12-14T04:23:52.552Z,22.37
2022-12-14T04:24:23.965Z,22.36
2022-12-14T04:24:55.406Z,22.35
2022-12-14T04:25:26.815Z,22.33
2022-12-14T04:25:58.287Z,22.35
2022-12-14T04:26:29.792Z,22.32
2022-12-14T04:27:01.233Z,22.31
2022-12-14T04:27:32.822Z,22.28
2022-12-14T04:28:04.320Z,22.26
2022-12-14T04:28:35.749Z,22.23
2022-12-14T04:29:07.131Z,22.22
2022-12-14T04:29:41.510Z,22.17
2022-12-14T04:30:17.147Z,22.15
2022-12-14T04:30:48.560Z,22.12
2022-12-14T04:31:20.027Z,22.11
2022-12-14T04:31:51.529Z,22.09
2022-12-14T04:32:23.039Z,22.08
2022-12-14T04:32:54.732Z,22.08
2022-12-14T04:33:26.539Z,22.09
2022-12-14T04:33:58.336Z,22.09
2022-12-14T04:34:29.844Z,22.07
2022-12-14T04:35:01.268Z,22.07
2022-12-14T04:35:32.705Z,22.06
2022-12-14T04:36:04.123Z,22.06
2022-12-14T04:36:35.539Z,22.06
2022-12-14T04:37:06.925Z,22.06
2022-12-14T04:37:38.544Z,22.05
2022-12-14T04:38:10.037Z,22.03
2022-12-14T04:38:41.436Z,22.04
2022-12-14T04:39:12.920Z,22.01
2022-12-14T04:39:44.361Z,22.03
2022-12-14T04:40:15.747Z,22.04
2022-12-14T04:40:47.196Z,22.02
2022-12-14T04:41:18.616Z,22.01
2022-12-14T04:41:50.096Z,22.01
2022-12-14T04:42:21.529Z,22.03
2022-12-14T04:42:52.930Z,22.01
2022-12-14T04:43:24.828Z,22.01
2022-12-14T04:43:56.405Z,22.02
2022-12-14T04:44:27.846Z,22.00
2022-12-14T04:44:59.340Z,22.00
2022-12-14T04:45:30.826Z,22.01
2022-12-14T04:46:02.395Z,22.02
2022-12-14T04:46:38.875Z,22.03
2022-12-14T04:47:11.898Z,22.01
2022-12-14T04:47:43.335Z,22.01
2022-12-14T04:48:14.797Z,21.99
2022-12-14T04:48:46.248Z,22.00
2022-12-14T04:49:17.763Z,21.99
2022-12-14T04:49:49.435Z,22.00
2022-12-14T04:50:20.935Z,22.01
2022-12-14T04:50:52.333Z,22.02
2022-12-14T04:51:23.846Z,22.01
2022-12-14T04:51:57.303Z,22.02
2022-12-14T04:52:32.071Z,22.01
2022-12-14T04:53:03.486Z,22.04
2022-12-14T04:53:34.904Z,22.02
2022-12-14T04:54:06.317Z,22.04
2022-12-14T04:54:37.827Z,22.03
2022-12-14T04:55:09.254Z,22.02
2022-12-14T04:55:40.707Z,22.02
2022-12-14T04:56:12.140Z,22.03
2022-12-14T04:56:43.586Z,22.02
2022-12-14T04:57:19.074Z,21.99
2022-12-14T04:57:51.008Z,21.98
2022-12-14T04:58:22.466Z,21.97
2022-12-14T04:58:53.875Z,21.98
2022-12-14T04:59:25.397Z,21.98
2022-12-14T04:59:56.909Z,21.99
2022-12-14T05:00:28.400Z,21.99
2022-12-14T05:00:59.966Z,22.00
2022-12-14T05:01:31.639Z,21.99
2022-12-14T05:02:03.234Z,21.99
2022-12-14T05:02:34.878Z,22.00
2022-12-14T05:03:06.484Z,21.99
2022-12-14T05:03:37.934Z,22.00
2022-12-14T05:04:12.493Z,22.01
2022-12-14T05:04:44.369Z,22.03
2022-12-14T05:05:15.887Z,22.01
2022-12-14T05:05:47.298Z,22.00
2022-12-14T05:06:18.724Z,22.00
2022-12-14T05:06:50.109Z,22.00
2022-12-14T05:07:21.568Z,22.00
2022-12-14T05:07:53.011Z,22.01
2022-12-14T05:08:24.424Z,22.00
2022-12-14T05:08:55.924Z,22.00
2022-12-14T05:09:27.534Z,21.98
2022-12-14T05:09:58.999Z,21.98
2022-12-14T05:10:30.486Z,21.99
2022-12-14T05:11:22.117Z,22.00
2022-12-14T05:11:54.491Z,22.01
2022-12-14T05:12:26.284Z,22.03
2022-12-14T05:12:57.703Z,22.02
2022-12-14T05:13:29.435Z,22.01
2022-12-14T05:14:03.660Z,22.03
2022-12-14T05:14:35.192Z,21.99
2022-12-14T05:15:06.611Z,21.99
2022-12-14T05:15:38.127Z,22.00
2022-12-14T05:16:09.531Z,22.01
2022-12-14T05:16:41.015Z,22.02
2022-12-14T05:17:12.561Z,22.00
2022-12-14T05:17:43.989Z,22.00
2022-12-14T05:18:15.408Z,21.99
2022-12-14T05:18:46.821Z,22.00
2022-12-14T05:19:18.222Z,22.00
2022-12-14T05:19:49.682Z,21.98
2022-12-14T05:20:21.122Z,21.99
2022-12-14T05:20:52.639Z,22.00
2022-12-14T05:21:24.118Z,22.02
2022-12-14T05:21:55.550Z,21.99
2022-12-14T05:22:26.928Z,21.99
2022-12-14T05:22:58.535Z,22.00
2022-12-14T05:23:30.301Z,22.00
2022-12-14T05:24:01.908Z,22.00
2022-12-14T05:24:33.330Z,22.01
2022-12-14T05:25:04.828Z,21.98
2022-12-14T05:25:36.258Z,21.99
2022-12-14T05:26:07.814Z,22.00
2022-12-14T05:26:39.232Z,21.99
2022-12-14T05:27:10.678Z,22.02
2022-12-14T05:27:42.257Z,22.00
2022-12-14T05:28:13.734Z,21.99
2022-12-14T05:28:50.237Z,22.02
2022-12-14T05:29:21.996Z,22.02
2022-12-14T05:29:53.460Z,22.03
2022-12-14T05:30:24.927Z,22.02
2022-12-14T05:30:56.548Z,22.03
2022-12-14T05:31:28.063Z,22.02
2022-12-14T05:31:59.454Z,22.03
2022-12-14T05:32:30.878Z,22.04
2022-12-14T05:33:02.338Z,22.03
2022-12-14T05:33:33.829Z,22.04
2022-12-14T05:34:05.276Z,22.04
2022-12-14T05:34:36.720Z,22.06
2022-12-14T05:35:08.159Z,22.06
2022-12-14T05:35:39.536Z,22.04
2022-12-14T05:36:10.949Z,22.05
2022-12-14T05:36:42.434Z,22.04
2022-12-14T05:37:18.242Z,22.03
2022-12-14T05:37:50.107Z,22.05
2022-12-14T05:38:21.611Z,22.04
2022-12-14T05:38:53.196Z,22.05
2022-12-14T05:39:24.651Z,22.03
2022-12-14T05:39:56.026Z,22.03
2022-12-14T05:40:27.538Z,22.05
2022-12-14T05:40:58.927Z,22.07
2022-12-14T05:41:30.349Z,22.06
2022-12-14T05:42:01.748Z,22.07
2022-12-14T05:42:33.193Z,22.05
2022-12-14T05:43:04.586Z,22.06
2022-12-14T05:43:36.263Z,22.06
2022-12-14T05:44:07.764Z,22.09
2022-12-14T05:44:39.221Z,22.06
2022-12-14T05:45:10.694Z,22.06
2022-12-14T05:45:42.144Z,22.06
2022-12-14T05:46:13.551Z,22.05
2022-12-14T05:46:45.054Z,22.05
2022-12-14T05:47:16.525Z,22.05
2022-12-14T05:47:47.958Z,22.05
2022-12-14T05:48:19.351Z,22.06
2022-12-14T05:48:50.892Z,22.05
2022-12-14T05:49:22.421Z,22.06
2022-12-14T05:49:53.846Z,22.05
2022-12-14T05:50:25.407Z,22.04
2022-12-14T05:50:56.824Z,22.07
2022-12-14T05:51:28.298Z,22.07
2022-12-14T05:51:59.737Z,22.08
2022-12-14T05:52:31.128Z,22.06
2022-12-14T05:53:02.592Z,22.07
2022-12-14T05:53:33.981Z,22.08
2022-12-14T05:54:05.538Z,22.09
2022-12-14T05:54:36.943Z,22.08
2022-12-14T05:55:08.384Z,22.08
2022-12-14T05:55:39.852Z,22.06
2022-12-14T05:56:11.264Z,22.07
2022-12-14T05:56:42.706Z,22.07
2022-12-14T05:57:14.150Z,22.07
2022-12-14T05:57:45.599Z,22.09
2022-12-14T05:58:16.967Z,22.09
2022-12-14T05:58:48.405Z,22.07
2022-12-14T05:59:19.930Z,22.09
2022-12-14T05:59:51.476Z,22.07
2022-12-14T06:00:23.085Z,22.07
2022-12-14T06:00:54.589Z,22.06
2022-12-14T06:01:26.135Z,22.07
2022-12-14T06:01:57.774Z,22.07
2022-12-14T06:02:29.297Z,22.08
2022-12-14T06:03:00.816Z,22.10
2022-12-14T06:03:32.301Z,22.11
2022-12-14T06:04:03.771Z,22.09
2022-12-14T06:04:35.351Z,22.11
2022-12-14T06:05:06.850Z,22.14
2022-12-14T06:05:38.358Z,22.16
2022-12-14T06:06:09.824Z,22.16
2022-12-14T06:06:41.257Z,22.18
2022-12-14T06:07:12.694Z,22.19
2022-12-14T06:07:44.088Z,22.22
2022-12-14T06:08:15.553Z,22.21
2022-12-14T06:08:46.930Z,22.24
2022-12-14T06:09:18.342Z,22.22
2022-12-14T06:09:49.749Z,22.24
2022-12-14T06:10:21.334Z,22.26
2022-12-14T06:10:52.761Z,22.27
2022-12-14T06:11:24.226Z,22.29
2022-12-14T06:11:55.737Z,22.33
2022-12-14T06:12:27.112Z,22.31
2022-12-14T06:12:58.586Z,22.33
2022-12-14T06:13:30.394Z,22.32
2022-12-14T06:14:01.978Z,22.34
2022-12-14T06:14:33.418Z,22.35
2022-12-14T06:15:04.913Z,22.33
2022-12-14T06:15:36.342Z,22.32
2022-12-14T06:16:07.800Z,22.34
2022-12-14T06:16:39.385Z,22.34
2022-12-14T06:17:10.946Z,22.36
2022-12-14T06:17:42.389Z,22.37
2022-12-14T06:18:13.802Z,22.38
2022-12-14T06:18:45.257Z,22.40
2022-12-14T06:19:16.647Z,22.40
2022-12-14T06:19:50.181Z,22.41
2022-12-14T06:20:21.904Z,22.42
2022-12-14T06:20:53.294Z,22.43
2022-12-14T06:21:24.710Z,22.41
2022-12-14T06:21:56.247Z,22.39
2022-12-14T06:22:27.662Z,22.38
2022-12-14T06:22:59.162Z,22.35
2022-12-14T06:23:30.758Z,22.34
2022-12-14T06:24:02.361Z,22.35
2022-12-14T06:24:33.902Z,22.32
2022-12-14T06:25:05.344Z,22.32
2022-12-14T06:25:36.742Z,22.33
2022-12-14T06:26:08.137Z,22.31
2022-12-14T06:26:39.575Z,22.33
2022-12-14T06:27:11.108Z,22.32
2022-12-14T06:27:42.552Z,22.34
2022-12-14T06:28:13.963Z,22.33
2022-12-14T06:28:45.389Z,22.33
2022-12-14T06:29:16.782Z,22.35
2022-12-14T06:29:48.221Z,22.34
2022-12-14T06:30:19.845Z,22.35
2022-12-14T06:30:51.306Z,22.34
2022-12-14T06:31:22.859Z,22.33
2022-12-14T06:31:54.356Z,22.31
2022-12-14T06:32:25.828Z,22.31
2022-12-14T06:32:57.238Z,22.34
2022-12-14T06:33:28.872Z,22.35
2022-12-14T06:34:00.567Z,22.35
2022-12-14T06:34:35.464Z,22.39
2022-12-14T06:35:10.116Z,22.38
2022-12-14T06:35:41.559Z,22.37
2022-12-14T06:36:13.031Z,22.35
2022-12-14T06:36:44.610Z,22.35
2022-12-14T06:37:16.080Z,22.37
2022-12-14T06:37:49.005Z,22.35
2022-12-14T06:38:20.563Z,22.34
2022-12-14T06:38:51.955Z,22.34
2022-12-14T06:39:23.386Z,22.36
2022-12-14T06:39:54.822Z,22.35
2022-12-14T06:40:26.240Z,22.35
2022-12-14T06:40:57.679Z,22.36
2022-12-14T06:41:29.076Z,22.34
2022-12-14T06:42:00.466Z,22.34
2022-12-14T06:42:31.881Z,22.35
2022-12-14T06:43:03.412Z,22.35
2022-12-14T06:43:34.772Z,22.34
2022-12-14T06:44:06.242Z,22.34
2022-12-14T06:44:37.723Z,22.31
2022-12-14T06:45:09.167Z,22.34
2022-12-14T06:45:40.568Z,22.33
2022-12-14T06:46:15.610Z,22.34
2022-12-14T06:46:47.542Z,22.35
2022-12-14T06:47:18.987Z,22.36